Terminal Aerodrome Forecast
Issued by NWS Pittsburgh, PA

Current Version | Previous Version | Text Only | Print | Product List | Glossary Off
Versions: 1 2 3 4 5 6 7 8 9 10 11 12 13 14 15 16 17 18 19 20 21 22 23 24 25 26 27 28 29 30 31

000
FTUS41 KPBZ 240800 AAA
TAFPIT
TAF AMD
KPIT 240839Z 2409/2512 18012G22KT P6SM VCSH SCT012 OVC050
     FM241500 19013G29KT P6SM BKN050
     FM241600 20020G45KT P6SM BKN050
     FM242100 23014G30KT P6SM BKN050=

USA.gov is the U.S. government's official web portal to all federal, state and local government web resources and services.